Time;durP1;ratioP1;P1;durP2;ratioP2;P2;SDS_P1;SDS_P2;PMS_P1;PMS_P2;Temp;Humidity;BMP_temperature;BMP_pressure;BME280_temperature;BME280_humidity;BME280_pressure;Samples;Min_cycle;Max_cycle;Signal;HPM_P1;HPM_P2
2022/10/12 00:00:02;;;;;;;24.33;9.20;;;;;;;7.43;100.00;102662.50;5027181;28;20021;-64
2022/10/12 00:02:27;;;;;;;21.98;8.93;;;;;;;7.43;100.00;102657.25;5026829;28;20030;-65
2022/10/12 00:04:53;;;;;;;22.85;9.32;;;;;;;7.43;100.00;102657.25;5028891;28;20545;-65
2022/10/12 00:07:18;;;;;;;23.60;8.68;;;;;;;7.41;100.00;102653.75;5046693;28;20491;-66
2022/10/12 00:09:43;;;;;;;22.10;8.68;;;;;;;7.38;100.00;102654.63;5045740;28;20391;-66
2022/10/12 00:12:09;;;;;;;20.25;8.55;;;;;;;7.37;100.00;102657.22;5046191;28;20112;-66
2022/10/12 00:14:35;;;;;;;27.42;8.68;;;;;;;7.35;100.00;102653.72;5047262;28;20107;-65
2022/10/12 00:17:01;;;;;;;16.15;7.72;;;;;;;7.32;100.00;102649.31;5045859;28;20048;-66
2022/10/12 00:19:26;;;;;;;23.02;9.38;;;;;;;7.30;100.00;102646.69;5045778;28;20027;-66
2022/10/12 00:21:52;;;;;;;27.13;8.98;;;;;;;7.29;100.00;102650.16;5046128;28;20041;-66
2022/10/12 00:24:17;;;;;;;20.02;7.63;;;;;;;7.29;100.00;102650.16;5046738;28;20360;-66
2022/10/12 00:26:42;;;;;;;18.63;7.03;;;;;;;7.28;100.00;102648.41;5049743;28;20131;-66
2022/10/12 00:29:08;;;;;;;27.52;8.73;;;;;;;7.26;100.00;102650.16;5050868;28;20028;-65
2022/10/12 00:31:33;;;;;;;19.92;7.60;;;;;;;7.24;100.00;102651.88;5051730;28;20036;-66
2022/10/12 00:34:00;;;;;;;17.40;7.20;;;;;;;7.22;100.00;102648.34;5050655;28;20048;-66
2022/10/12 00:36:29;;;;;;;24.05;7.53;;;;;;;7.18;100.00;102651.81;5033493;28;20043;-66
2022/10/12 00:38:55;;;;;;;16.73;7.57;;;;;;;7.13;100.00;102654.38;5028898;28;20096;-65
2022/10/12 00:41:23;;;;;;;18.50;8.55;;;;;;;7.09;100.00;102652.59;5029236;28;20276;-65
2022/10/12 00:43:49;;;;;;;22.60;7.75;;;;;;;7.07;100.00;102649.97;5030452;28;20056;-64
2022/10/12 00:46:14;;;;;;;16.58;7.22;;;;;;;7.05;100.00;102646.44;5030576;28;20022;-65
2022/10/12 00:48:40;;;;;;;14.30;7.72;;;;;;;7.01;100.00;102644.66;5037954;28;20048;-65
2022/10/12 00:51:06;;;;;;;21.45;8.88;;;;;;;6.98;100.00;102642.00;5049856;28;20055;-66
2022/10/12 00:53:35;;;;;;;16.30;8.63;;;;;;;6.97;100.00;102637.63;5048497;28;20033;-65
2022/10/12 00:56:03;;;;;;;23.17;8.05;;;;;;;6.93;100.00;102651.56;5050093;28;20060;-65
2022/10/12 00:58:30;;;;;;;24.60;8.33;;;;;;;6.91;100.00;102648.03;5050377;28;20387;-65
2022/10/12 01:00:58;;;;;;;27.67;8.13;;;;;;;6.85;100.00;102643.59;5048847;28;20033;-65
2022/10/12 01:03:23;;;;;;;18.17;8.68;;;;;;;6.77;100.00;102643.53;5093540;22;20703;-66
2022/10/12 01:05:49;;;;;;;18.08;8.10;;;;;;;6.74;100.00;102640.00;5030783;28;20075;-65
2022/10/12 01:08:14;;;;;;;19.63;7.95;;;;;;;6.69;100.00;102638.19;5030174;28;20069;-65
2022/10/12 01:10:39;;;;;;;13.45;7.95;;;;;;;6.68;100.00;102632.94;5030273;28;20407;-66
2022/10/12 01:13:05;;;;;;;20.25;7.43;;;;;;;6.62;100.00;102635.50;5030042;28;20116;-66
2022/10/12 01:15:36;;;;;;;24.13;8.23;;;;;;;6.56;100.00;102637.19;5031453;28;20502;-66
2022/10/12 01:18:09;;;;;;;17.83;7.22;;;;;;;6.49;100.00;102630.09;5029352;28;20789;-66
2022/10/12 01:20:35;;;;;;;18.63;7.75;;;;;;;6.44;100.00;102631.78;5030732;28;20096;-66
2022/10/12 01:23:15;;;;;;;17.48;8.05;;;;;;;6.38;100.00;102632.59;5030098;28;20162;-66
2022/10/12 01:26:12;;;;;;;19.92;8.25;;;;;;;6.32;100.00;102619.41;5030219;28;20392;-66
2022/10/12 01:29:02;;;;;;;22.13;8.55;;;;;;;6.26;100.00;102619.34;5029538;28;20040;-65
2022/10/12 01:31:53;;;;;;;20.73;8.57;;;;;;;6.22;100.00;102621.03;5030575;28;20050;-67
2022/10/12 01:34:29;;;;;;;18.60;9.05;;;;;;;6.16;100.00;102615.72;5026282;28;20064;-65
2022/10/12 01:37:09;;;;;;;23.45;8.82;;;;;;;6.12;100.00;102621.78;5027313;28;20038;-67
2022/10/12 01:39:43;;;;;;;16.52;8.35;;;;;;;6.11;100.00;102620.88;5029778;28;20034;-67
2022/10/12 01:42:19;;;;;;;26.55;9.25;;;;;;;6.07;100.00;102622.59;5026929;28;20103;-65
2022/10/12 01:44:44;;;;;;;21.88;8.82;;;;;;;6.05;100.00;102623.44;5029205;28;20029;-66
2022/10/12 01:47:10;;;;;;;18.45;8.35;;;;;;;6.03;100.00;102614.66;5029959;28;20025;-66
2022/10/12 01:49:36;;;;;;;21.25;9.55;;;;;;;6.01;100.00;102612.00;5045222;28;20021;-66
2022/10/12 01:52:42;;;;;;;21.67;8.43;;;;;;;6.00;100.00;102612.88;5050221;28;20116;-65
2022/10/12 01:55:27;;;;;;;18.95;9.38;;;;;;;5.96;100.00;102616.28;5026571;28;20055;-66
2022/10/12 01:58:05;;;;;;;17.73;8.65;;;;;;;5.94;100.00;102615.41;5050024;28;20033;-65
2022/10/12 02:00:39;;;;;;;18.10;8.13;;;;;;;5.90;100.00;102608.38;5050336;28;20036;-66
2022/10/12 02:03:46;;;;;;;18.15;9.10;;;;;;;5.87;100.00;102605.72;5049443;28;20045;-67
2022/10/12 02:06:15;;;;;;;25.85;8.48;;;;;;;5.86;100.00;102606.56;5034574;28;20056;-66
2022/10/12 02:08:58;;;;;;;21.67;8.85;;;;;;;5.82;100.00;102598.66;5028421;28;20112;-66
2022/10/12 02:11:25;;;;;;;18.05;8.85;;;;;;;5.81;100.00;102609.13;5028930;28;20072;-66
2022/10/12 02:13:56;;;;;;;21.63;9.18;;;;;;;5.78;100.00;102599.47;5029393;28;20433;-67
2022/10/12 02:16:27;;;;;;;20.55;8.40;;;;;;;5.75;100.00;102603.81;5028364;28;20100;-65
2022/10/12 02:18:54;;;;;;;19.85;8.80;;;;;;;5.72;100.00;102599.38;5027556;28;20033;-65
2022/10/12 02:21:21;;;;;;;24.40;9.13;;;;;;;5.69;100.00;102594.13;5029058;28;20036;-66
2022/10/12 02:23:47;;;;;;;22.60;10.85;;;;;;;5.66;100.00;102591.47;5028483;28;20033;-67
2022/10/12 02:26:14;;;;;;;26.52;8.40;;;;;;;5.63;100.00;102591.41;5027478;28;20032;-67
2022/10/12 02:28:41;;;;;;;25.73;8.13;;;;;;;5.60;100.00;102586.13;5027979;28;20061;-66
2022/10/12 02:31:14;;;;;;;28.02;9.20;;;;;;;5.57;100.00;102585.22;5028669;28;20037;-66
2022/10/12 02:33:54;;;;;;;23.38;8.27;;;;;;;5.55;100.00;102581.72;5029205;28;20033;-66
2022/10/12 02:36:26;;;;;;;19.50;9.05;;;;;;;5.54;100.00;102579.94;5031344;28;20318;-65
2022/10/12 02:39:01;;;;;;;16.27;8.55;;;;;;;5.54;100.00;102579.09;5030818;28;20036;-65
2022/10/12 02:41:34;;;;;;;16.13;8.65;;;;;;;5.54;100.00;102573.84;5033703;28;20480;-65
2022/10/12 02:44:01;;;;;;;18.48;8.57;;;;;;;5.53;100.00;102578.19;5027539;28;20030;-66
2022/10/12 02:46:27;;;;;;;27.27;8.60;;;;;;;5.53;100.00;102575.56;5026961;28;20022;-64
2022/10/12 02:48:54;;;;;;;26.92;8.43;;;;;;;5.51;100.00;102572.03;5035589;28;20033;-68
2022/10/12 02:51:20;;;;;;;22.38;8.73;;;;;;;5.51;100.00;102569.44;5047455;28;20033;-66
2022/10/12 02:53:46;;;;;;;22.25;8.45;;;;;;;5.52;100.00;102565.97;5047999;28;20048;-66
2022/10/12 02:56:13;;;;;;;14.18;8.43;;;;;;;5.52;100.00;102570.31;5046112;28;20025;-68
2022/10/12 02:58:42;;;;;;;23.13;7.95;;;;;;;5.50;100.00;102565.06;5030669;28;20036;-65
2022/10/12 03:01:07;;;;;;;18.33;8.45;;;;;;;5.49;100.00;102567.66;5037736;28;20026;-66
2022/10/12 03:03:32;;;;;;;15.10;7.78;;;;;;;5.47;100.00;102566.75;5028928;28;20095;-66
2022/10/12 03:05:58;;;;;;;20.88;8.18;;;;;;;5.47;100.00;102566.75;5027655;28;20034;-66
2022/10/12 03:08:23;;;;;;;24.02;8.73;;;;;;;5.46;100.00;102563.28;5027430;28;20444;-66
2022/10/12 03:10:48;;;;;;;16.77;7.80;;;;;;;5.47;100.00;102566.75;5027550;28;20442;-66
2022/10/12 03:13:14;;;;;;;17.50;8.45;;;;;;;5.46;100.00;102563.28;5027874;28;20029;-66
2022/10/12 03:15:39;;;;;;;23.83;8.35;;;;;;;5.47;100.00;102551.94;5028158;28;20029;-66
2022/10/12 03:18:04;;;;;;;14.00;7.50;;;;;;;5.46;100.00;102555.44;5035447;28;20108;-66
2022/10/12 03:20:30;;;;;;;16.98;7.43;;;;;;;5.46;100.00;102557.16;5048046;28;20052;-66
2022/10/12 03:22:55;;;;;;;11.70;7.55;;;;;;;5.46;100.00;102557.16;5046343;28;20383;-66
2022/10/12 03:25:20;;;;;;;17.27;7.90;;;;;;;5.45;100.00;102553.69;5046771;28;20360;-66
2022/10/12 03:27:46;;;;;;;23.80;9.45;;;;;;;5.47;100.00;102551.94;5047407;28;20029;-65
2022/10/12 03:30:11;;;;;;;20.70;8.23;;;;;;;5.47;100.00;102559.78;5047444;28;20463;-66
2022/10/12 03:32:37;;;;;;;17.63;7.82;;;;;;;5.49;100.00;102560.69;5029824;28;20386;-66
2022/10/12 03:35:03;;;;;;;19.83;7.65;;;;;;;5.51;100.00;102569.44;5037171;28;20124;-66
2022/10/12 03:37:29;;;;;;;13.13;7.80;;;;;;;5.53;100.00;102557.28;5027699;28;20037;-66
2022/10/12 03:39:54;;;;;;;16.60;8.32;;;;;;;5.55;100.00;102560.81;5027560;28;20033;-66
2022/10/12 03:42:19;;;;;;;16.42;8.10;;;;;;;5.57;100.00;102556.44;5027053;28;20112;-66
2022/10/12 03:44:45;;;;;;;18.73;7.95;;;;;;;5.58;100.00;102549.50;5028154;28;20021;-66
2022/10/12 03:47:10;;;;;;;18.63;8.05;;;;;;;5.59;100.00;102558.19;5027827;28;20026;-66
2022/10/12 03:49:35;;;;;;;19.80;7.57;;;;;;;5.61;100.00;102551.28;5025848;28;20483;-66
2022/10/12 03:52:01;;;;;;;17.25;8.60;;;;;;;5.63;100.00;102560.03;5035297;28;20033;-65
2022/10/12 03:54:26;;;;;;;16.50;7.85;;;;;;;5.63;100.00;102565.25;5047514;28;20079;-66
2022/10/12 03:56:51;;;;;;;17.05;8.15;;;;;;;5.63;100.00;102562.66;5040040;28;20025;-64
2022/10/12 03:59:16;;;;;;;17.50;8.32;;;;;;;5.62;100.00;102568.72;5025984;28;20033;-66
2022/10/12 04:01:42;;;;;;;19.17;8.77;;;;;;;5.61;100.00;102559.13;5025297;28;20025;-66
2022/10/12 04:04:09;;;;;;;17.55;9.15;;;;;;;5.59;100.00;102560.81;5026644;28;20126;-67
2022/10/12 04:06:34;;;;;;;19.45;9.57;;;;;;;5.55;100.00;102560.81;5029764;28;20475;-66
2022/10/12 04:09:00;;;;;;;14.65;9.05;;;;;;;5.53;100.00;102572.97;5027507;28;20090;-66
2022/10/12 04:11:25;;;;;;;19.75;9.25;;;;;;;5.51;100.00;102564.19;5024421;28;20017;-66
2022/10/12 04:13:50;;;;;;;22.05;10.20;;;;;;;5.49;100.00;102557.19;5026704;28;20033;-66
2022/10/12 04:16:16;;;;;;;20.30;9.32;;;;;;;5.46;100.00;102563.28;5026840;28;20087;-65
2022/10/12 04:18:41;;;;;;;22.52;9.57;;;;;;;5.45;100.00;102558.91;5027325;28;20521;-65
2022/10/12 04:21:09;;;;;;;17.05;9.77;;;;;;;5.44;100.00;102557.13;5026396;28;20531;-67
2022/10/12 04:23:35;;;;;;;24.20;10.70;;;;;;;5.43;100.00;102552.75;5023091;28;20029;-67
2022/10/12 04:26:00;;;;;;;21.67;11.40;;;;;;;5.42;100.00;102559.72;5026578;28;20505;-66
2022/10/12 04:28:25;;;;;;;25.83;11.80;;;;;;;5.44;100.00;102559.75;5026500;28;20025;-66
2022/10/12 04:30:51;;;;;;;25.70;12.93;;;;;;;5.44;100.00;102551.91;5026209;28;20048;-66
2022/10/12 04:33:16;;;;;;;24.63;12.80;;;;;;;5.47;100.00;102544.09;5025087;28;20041;-66
2022/10/12 04:35:41;;;;;;;24.52;12.20;;;;;;;5.50;100.00;102549.38;5026524;28;20018;-66
2022/10/12 04:38:07;;;;;;;22.45;12.32;;;;;;;5.54;100.00;102545.09;5026511;28;20073;-66
2022/10/12 04:40:32;;;;;;;20.80;12.02;;;;;;;5.59;100.00;102539.91;5026402;28;20030;-67
2022/10/12 04:42:57;;;;;;;32.53;13.65;;;;;;;5.64;100.00;102544.38;5027441;28;20419;-67
2022/10/12 04:45:23;;;;;;;24.67;13.80;;;;;;;5.70;100.00;102540.94;5030000;28;20149;-67
2022/10/12 04:47:48;;;;;;;28.23;13.07;;;;;;;5.74;100.00;102545.34;5026421;28;20028;-67
2022/10/12 04:50:13;;;;;;;27.27;13.07;;;;;;;5.78;100.00;102536.69;5025681;28;20021;-65
2022/10/12 04:52:39;;;;;;;32.58;13.85;;;;;;;5.84;100.00;102538.50;5025998;28;20413;-66
2022/10/12 04:55:05;;;;;;;24.20;12.77;;;;;;;5.88;100.00;102531.59;5025238;28;20123;-66
2022/10/12 04:57:30;;;;;;;29.30;12.80;;;;;;;5.93;100.00;102536.00;5027400;28;20018;-65
2022/10/12 04:59:55;;;;;;;36.75;12.32;;;;;;;5.99;100.00;102524.75;5026143;28;20030;-66
2022/10/12 05:02:21;;;;;;;26.67;12.38;;;;;;;6.03;100.00;102525.66;5022384;28;20045;-65
2022/10/12 05:04:46;;;;;;;21.88;12.57;;;;;;;6.09;100.00;102530.13;5024284;28;20029;-66
2022/10/12 05:07:11;;;;;;;28.52;12.80;;;;;;;6.13;100.00;102518.84;5025544;28;20064;-66
2022/10/12 05:09:37;;;;;;;27.65;13.07;;;;;;;6.18;100.00;102511.94;5026258;28;20100;-66
2022/10/12 05:12:02;;;;;;;24.20;10.55;;;;;;;6.20;100.00;102515.41;5027563;28;20075;-65
2022/10/12 05:14:27;;;;;;;21.55;11.93;;;;;;;6.26;100.00;102519.88;5030165;28;20036;-67
2022/10/12 05:16:53;;;;;;;25.52;11.43;;;;;;;6.27;100.00;102519.91;5030492;28;20478;-67
2022/10/12 05:19:18;;;;;;;33.70;12.02;;;;;;;6.28;100.00;102518.13;5030221;28;20494;-66
2022/10/12 05:21:43;;;;;;;30.20;12.23;;;;;;;6.29;100.00;102512.91;5030176;28;20448;-67
2022/10/12 05:24:09;;;;;;;22.45;10.88;;;;;;;6.28;100.00;102513.78;5028697;28;20534;-67
2022/10/12 05:26:35;;;;;;;26.08;11.25;;;;;;;6.26;100.00;102512.88;5029672;28;20030;-67
2022/10/12 05:29:00;;;;;;;23.65;10.93;;;;;;;6.22;100.00;102520.69;5030218;28;20035;-66
2022/10/12 05:31:25;;;;;;;22.80;9.63;;;;;;;6.19;100.00;102521.53;5030039;28;20483;-68
2022/10/12 05:33:51;;;;;;;28.83;11.25;;;;;;;6.16;100.00;102524.09;5030194;28;20531;-65
2022/10/12 05:36:16;;;;;;;20.05;10.30;;;;;;;6.12;100.00;102525.81;5029908;28;20542;-68
2022/10/12 05:38:41;;;;;;;29.40;11.20;;;;;;;6.10;100.00;102527.53;5030151;28;20033;-68
2022/10/12 05:41:07;;;;;;;22.88;10.20;;;;;;;6.05;100.00;102527.47;5044282;28;20037;-70
2022/10/12 05:43:32;;;;;;;29.95;10.27;;;;;;;6.03;100.00;102530.91;5050382;28;20108;-66
2022/10/12 05:45:57;;;;;;;24.30;10.57;;;;;;;5.98;100.00;102524.72;5048451;28;20459;-66
2022/10/12 05:48:23;;;;;;;22.98;9.35;;;;;;;5.93;100.00;102525.53;5049317;28;20027;-66
2022/10/12 05:50:51;;;;;;;29.90;10.90;;;;;;;5.90;100.00;102527.25;5049344;28;20021;-66
2022/10/12 05:53:17;;;;;;;19.07;10.57;;;;;;;5.88;100.00;102526.34;5049215;28;20058;-67
2022/10/12 05:55:59;;;;;;;30.08;10.80;;;;;;;5.85;100.00;102521.09;5048606;28;20021;-67
2022/10/12 05:58:27;;;;;;;25.85;11.00;;;;;;;5.84;100.00;102521.94;5010088;28;20504;-67
2022/10/12 06:00:53;;;;;;;26.63;11.27;;;;;;;5.84;100.00;102527.19;5020736;28;20623;-67
2022/10/12 06:03:19;;;;;;;26.23;11.00;;;;;;;5.82;100.00;102525.41;5027505;28;20045;-67
2022/10/12 06:05:44;;;;;;;22.63;10.88;;;;;;;5.84;100.00;102524.56;5027599;28;20033;-68
2022/10/12 06:08:10;;;;;;;29.38;11.80;;;;;;;5.87;100.00;102527.22;5026595;28;20033;-66
2022/10/12 06:10:36;;;;;;;24.67;10.48;;;;;;;5.85;100.00;102521.97;5027021;28;20083;-67
2022/10/12 06:13:02;;;;;;;28.23;11.90;;;;;;;5.86;100.00;102522.81;5028427;28;20033;-67
2022/10/12 06:15:27;;;;;;;21.52;10.75;;;;;;;5.88;100.00;102521.13;5026775;28;20160;-67
2022/10/12 06:17:53;;;;;;;22.70;12.07;;;;;;;5.89;100.00;102526.38;5025524;28;20049;-66
2022/10/12 06:20:18;;;;;;;33.03;13.27;;;;;;;5.96;100.00;102531.69;5027437;28;20403;-65
2022/10/12 06:22:43;;;;;;;30.17;13.32;;;;;;;6.00;100.00;102523.91;5025764;28;20017;-67
2022/10/12 06:25:09;;;;;;;28.42;12.48;;;;;;;6.04;100.00;102522.22;5026679;28;20332;-66
2022/10/12 06:27:34;;;;;;;26.92;12.90;;;;;;;6.08;100.00;102518.78;5028341;28;20032;-67
2022/10/12 06:29:59;;;;;;;31.08;13.88;;;;;;;6.12;100.00;102517.09;5028163;28;20341;-65
2022/10/12 06:32:25;;;;;;;32.97;13.60;;;;;;;6.17;100.00;102520.66;5027900;28;20595;-67
2022/10/12 06:34:50;;;;;;;32.67;13.18;;;;;;;6.26;100.00;102517.25;5026701;28;20364;-64
2022/10/12 06:37:15;;;;;;;28.15;14.43;;;;;;;6.31;100.00;102516.44;5026191;28;20063;-65
2022/10/12 06:39:41;;;;;;;34.13;15.27;;;;;;;6.35;100.00;102511.25;5029063;28;20074;-66
2022/10/12 06:42:07;;;;;;;35.70;15.23;;;;;;;6.39;100.00;102508.69;5036908;28;20171;-66
2022/10/12 06:44:33;;;;;;;33.85;15.18;;;;;;;6.46;100.00;102509.59;5026568;28;20057;-68
2022/10/12 06:46:58;;;;;;;29.88;14.63;;;;;;;6.53;100.00;102502.72;5027993;28;20098;-66
2022/10/12 06:49:23;;;;;;;31.85;16.08;;;;;;;6.59;100.00;102505.34;5028059;28;20018;-66
2022/10/12 06:51:49;;;;;;;34.13;16.48;;;;;;;6.64;100.00;102502.78;5027418;28;20029;-64
2022/10/12 06:54:14;;;;;;;34.38;15.55;;;;;;;6.70;100.00;102505.47;5027075;28;20021;-65
2022/10/12 06:56:39;;;;;;;33.25;15.85;;;;;;;6.79;100.00;102500.31;5026165;28;20105;-63
2022/10/12 06:59:05;;;;;;;33.10;16.08;;;;;;;6.91;100.00;102501.28;5026885;28;20044;-67
2022/10/12 07:01:30;;;;;;;37.03;15.98;;;;;;;7.00;100.00;102501.34;5027420;28;20021;-65
2022/10/12 07:03:56;;;;;;;35.08;17.08;;;;;;;7.09;100.00;102503.16;5027028;28;20091;-67
2022/10/12 07:06:21;;;;;;;41.45;19.02;;;;;;;7.16;100.00;102502.34;5026696;28;20487;-66
2022/10/12 07:08:49;;;;;;;37.50;16.77;;;;;;;7.20;100.00;102506.75;5026863;28;20021;-66
2022/10/12 07:11:14;;;;;;;40.60;16.58;;;;;;;7.23;100.00;102503.28;5025313;28;20033;-65
2022/10/12 07:13:40;;;;;;;34.53;16.15;;;;;;;7.26;100.00;102516.41;5027705;28;20601;-66
2022/10/12 07:16:05;;;;;;;37.63;16.55;;;;;;;7.27;100.00;102506.78;5024145;28;20021;-68
2022/10/12 07:18:31;;;;;;;32.53;16.63;;;;;;;7.29;100.00;102518.19;5026471;28;20017;-67
2022/10/12 07:21:01;;;;;;;35.65;16.60;;;;;;;7.30;100.00;102512.94;5026412;28;20495;-67
2022/10/12 07:23:27;;;;;;;35.42;16.90;;;;;;;7.29;100.00;102507.69;5026199;28;20124;-68
2022/10/12 07:25:53;;;;;;;29.33;16.58;;;;;;;7.28;100.00;102513.78;5025972;28;20113;-66
2022/10/12 07:28:19;;;;;;;37.60;16.80;;;;;;;7.27;100.00;102510.28;5029554;28;20103;-65
2022/10/12 07:30:45;;;;;;;53.40;18.35;;;;;;;7.27;100.00;102512.03;5025808;28;20044;-66
2022/10/12 07:33:11;;;;;;;32.10;16.13;;;;;;;7.29;100.00;102512.94;5024847;28;20029;-67
2022/10/12 07:35:37;;;;;;;46.60;18.63;;;;;;;7.29;100.00;102516.41;5023553;28;20025;-68
2022/10/12 07:38:03;;;;;;;44.03;19.55;;;;;;;7.33;100.00;102512.06;5027106;28;20079;-67
2022/10/12 07:40:29;;;;;;;47.45;20.60;;;;;;;7.36;100.00;102521.69;5025885;28;20029;-67
2022/10/12 07:42:54;;;;;;;41.90;18.63;;;;;;;7.41;100.00;102518.25;5012177;28;20026;-67
2022/10/12 07:45:20;;;;;;;44.75;18.52;;;;;;;7.45;100.00;102519.16;5025075;28;20029;-67
2022/10/12 07:47:45;;;;;;;45.38;19.33;;;;;;;7.50;100.00;102514.81;5025377;28;20056;-66
2022/10/12 07:50:11;;;;;;;51.47;20.15;;;;;;;7.55;100.00;102513.09;5025081;28;20013;-68
2022/10/12 07:52:36;;;;;;;41.00;19.85;;;;;;;7.64;100.00;102511.38;5026141;28;20494;-66
2022/10/12 07:55:03;;;;;;;40.78;18.90;;;;;;;7.75;100.00;102512.31;5025144;28;20068;-68
2022/10/12 07:57:28;;;;;;;44.90;19.10;;;;;;;7.87;100.00;102505.38;5026803;28;20025;-66
2022/10/12 07:59:54;;;;;;;40.85;19.35;;;;;;;7.94;100.00;102502.78;5027049;28;20033;-65
2022/10/12 08:02:20;;;;;;;42.70;18.67;;;;;;;8.06;100.00;102507.19;5027333;28;20033;-66
2022/10/12 08:04:45;;;;;;;40.47;17.15;;;;;;;8.12;100.00;102514.22;5027065;28;20610;-66
2022/10/12 08:07:10;;;;;;;36.22;16.05;;;;;;;8.17;100.00;102514.25;5025654;28;20068;-66
2022/10/12 08:09:36;;;;;;;43.28;16.52;;;;;;;8.29;100.00;102516.03;5026327;28;20593;-66
2022/10/12 08:12:02;;;;;;;38.30;16.13;;;;;;;8.36;100.00;102524.81;5027069;28;20033;-66
2022/10/12 08:14:27;;;;;;;29.70;14.57;;;;;;;8.46;100.00;102521.34;5027557;28;20021;-66
2022/10/12 08:16:53;;;;;;;41.58;15.02;;;;;;;8.56;100.00;102520.50;5027005;28;20105;-67
2022/10/12 08:19:18;;;;;;;37.50;15.45;;;;;;;8.63;100.00;102528.38;5026389;28;20061;-66
2022/10/12 08:21:43;;;;;;;37.53;15.52;;;;;;;8.76;100.00;102530.13;5025543;28;20046;-66
2022/10/12 08:24:10;;;;;;;30.10;14.00;;;;;;;8.79;100.00;102519.63;5024908;28;20033;-67
2022/10/12 08:26:36;;;;;;;38.92;13.50;;;;;;;8.83;100.00;102521.41;5026437;28;20033;-67
2022/10/12 08:29:02;;;;;;;27.00;11.52;;;;;;;8.93;100.00;102522.28;5026960;28;20036;-67
2022/10/12 08:31:28;;;;;;;25.55;11.27;;;;;;;9.03;100.00;102514.41;5027054;28;20017;-67
2022/10/12 08:33:53;;;;;;;29.27;11.75;;;;;;;9.18;100.00;102510.88;5026087;28;20036;-66
2022/10/12 08:36:19;;;;;;;30.40;11.52;;;;;;;9.30;100.00;102518.75;5024331;28;20025;-65
2022/10/12 08:38:49;;;;;;;30.20;11.85;;;;;;;9.38;100.00;102515.22;5026278;28;20026;-65
2022/10/12 08:41:36;;;;;;;27.45;10.77;;;;;;;9.50;100.00;102512.56;5026010;28;20026;-67
2022/10/12 08:44:04;;;;;;;34.47;11.68;;;;;;;9.61;100.00;102525.72;5028517;28;20030;-64
2022/10/12 08:46:29;;;;;;;30.90;9.95;;;;;;;9.74;100.00;102521.28;5030235;28;20045;-65
2022/10/12 08:49:01;;;;;;;31.17;10.60;;;;;;;9.82;100.00;102518.63;5031388;28;20038;-66
2022/10/12 08:51:30;;;;;;;24.60;9.70;;;;;;;9.78;100.00;102519.53;5031157;28;20083;-67
2022/10/12 08:53:58;;;;;;;30.63;9.48;;;;;;;9.95;100.00;102522.97;5028923;28;20045;-66
2022/10/12 08:56:23;;;;;;;26.15;9.35;;;;;;;10.07;100.00;102516.75;5029651;28;20021;-65
2022/10/12 08:58:50;;;;;;;25.95;8.48;;;;;;;10.10;100.00;102516.75;5030063;28;20025;-65
2022/10/12 09:01:24;;;;;;;29.60;8.45;;;;;;;10.28;100.00;102507.00;5028779;28;20068;-67
2022/10/12 09:03:50;;;;;;;24.55;9.55;;;;;;;10.31;100.00;102506.97;5028158;28;20531;-65
2022/10/12 09:06:22;;;;;;;23.85;9.10;;;;;;;10.47;100.00;102501.63;5030333;28;20025;-67
2022/10/12 09:08:58;;;;;;;23.35;8.18;;;;;;;10.57;100.00;102505.94;5030612;28;20116;-66
2022/10/12 09:11:38;;;;;;;20.38;8.25;;;;;;;10.67;100.00;102508.50;5029826;28;20608;-65
2022/10/12 09:14:10;;;;;;;19.05;7.35;;;;;;;10.71;100.00;102491.78;5030705;28;20040;-66
2022/10/12 09:16:42;;;;;;;21.35;7.20;;;;;;;10.76;100.00;102504.94;5029381;28;20021;-66
2022/10/12 09:19:18;;;;;;;20.70;8.07;;;;;;;10.62;100.00;102500.63;5011005;28;20052;-66
2022/10/12 09:21:45;;;;;;;19.85;7.60;;;;;;;10.59;100.00;102508.56;5028637;28;20017;-66
2022/10/12 09:24:23;;;;;;;26.38;8.25;;;;;;;10.59;100.00;102506.81;5027077;28;20367;-67
2022/10/12 09:26:54;;;;;;;23.38;7.65;;;;;;;10.74;100.00;102515.50;5028168;28;20053;-67
2022/10/12 09:29:26;;;;;;;15.32;7.68;;;;;;;10.89;100.00;102519.78;5029137;28;20108;-66
2022/10/12 09:32:12;;;;;;;18.15;7.57;;;;;;;11.01;100.00;102521.44;5028769;28;20044;-67
2022/10/12 09:34:38;;;;;;;18.40;7.35;;;;;;;11.10;100.00;102528.38;5036771;28;20119;-67
2022/10/12 09:37:04;;;;;;;17.60;7.53;;;;;;;11.16;100.00;102532.72;5049065;28;20109;-66
2022/10/12 09:39:31;;;;;;;25.88;8.73;;;;;;;11.16;100.00;102532.72;5047050;28;20103;-67
2022/10/12 09:41:56;;;;;;;21.20;7.78;;;;;;;11.34;100.00;102534.31;5049930;28;20083;-67
2022/10/12 09:44:30;;;;;;;20.00;7.35;;;;;;;11.41;97.95;102533.38;5049640;28;20033;-66
2022/10/12 09:46:58;;;;;;;18.13;7.57;;;;;;;11.55;97.92;102525.31;5049011;28;20061;-66
2022/10/12 09:49:39;;;;;;;20.20;7.25;;;;;;;11.67;98.01;102515.50;5049605;28;20047;-65
2022/10/12 09:52:05;;;;;;;17.65;7.15;;;;;;;11.71;98.27;102507.53;5036331;28;20133;-68
2022/10/12 09:54:31;;;;;;;16.77;7.03;;;;;;;11.87;98.00;102508.19;5027948;28;20075;-66
2022/10/12 09:56:56;;;;;;;22.80;7.80;;;;;;;11.96;97.34;102507.22;5010048;28;20029;-66
2022/10/12 09:59:24;;;;;;;18.05;8.25;;;;;;;12.01;96.65;102504.50;5028794;28;20044;-66
2022/10/12 10:02:19;;;;;;;15.48;7.50;;;;;;;12.10;95.57;102493.00;5029042;28;20412;-65
2022/10/12 10:04:47;;;;;;;16.60;7.32;;;;;;;12.07;95.69;102485.97;5025999;28;20076;-66
2022/10/12 10:07:24;;;;;;;19.40;8.55;;;;;;;12.03;96.46;102496.56;5040709;28;20499;-67
2022/10/12 10:10:09;;;;;;;17.05;7.57;;;;;;;12.10;96.14;102485.94;5025139;28;20380;-67
2022/10/12 10:12:43;;;;;;;17.33;7.20;;;;;;;12.16;96.80;102463.81;5028716;28;20037;-66
2022/10/12 10:15:34;;;;;;;18.67;7.70;;;;;;;12.37;94.60;102470.56;5028805;28;20128;-67
2022/10/12 10:18:02;;;;;;;24.15;7.88;;;;;;;12.46;92.88;102466.91;5026966;28;20056;-65
2022/10/12 10:20:53;;;;;;;17.25;7.70;;;;;;;12.52;93.14;102450.06;5028132;28;20033;-66
2022/10/12 10:23:31;;;;;;;17.85;6.40;;;;;;;12.76;93.35;102443.50;5034862;28;20048;-66
2022/10/12 10:26:08;;;;;;;22.25;7.45;;;;;;;12.80;92.59;102435.50;5045545;28;20016;-66
2022/10/12 10:28:39;;;;;;;17.58;7.60;;;;;;;13.02;92.84;102433.34;5047059;28;20351;-65
2022/10/12 10:31:14;;;;;;;17.90;7.03;;;;;;;13.10;90.83;102433.22;5047813;28;20033;-65
2022/10/12 10:33:40;;;;;;;15.65;6.43;;;;;;;13.15;89.84;102423.38;5049046;28;20037;-66
2022/10/12 10:36:16;;;;;;;17.80;6.57;;;;;;;13.18;89.55;102422.47;5028540;28;20044;-65
2022/10/12 10:39:05;;;;;;;26.00;6.75;;;;;;;13.30;90.53;102411.63;5028251;28;20036;-65
2022/10/12 10:41:35;;;;;;;15.77;6.32;;;;;;;13.53;88.85;102412.97;5028854;28;20041;-66
2022/10/12 10:44:01;;;;;;;18.33;6.43;;;;;;;13.39;88.62;102406.16;5028138;28;20067;-66
2022/10/12 10:46:31;;;;;;;19.92;6.25;;;;;;;13.67;87.77;102404.75;5028714;28;20429;-66
2022/10/12 10:49:05;;;;;;;12.25;6.25;;;;;;;13.91;87.29;102407.75;5027518;28;20091;-65
2022/10/12 10:51:41;;;;;;;9.55;5.18;;;;;;;14.14;88.27;102404.53;5028136;28;20030;-67
2022/10/12 10:54:15;;;;;;;19.02;6.90;;;;;;;14.52;86.15;102396.56;5027665;28;20532;-67
2022/10/12 10:56:42;;;;;;;14.02;5.72;;;;;;;14.59;85.40;102391.94;5027890;28;20025;-65
2022/10/12 10:59:49;;;;;;;10.30;5.07;;;;;;;14.30;82.88;102387.41;5026688;28;20033;-65
2022/10/12 11:02:28;;;;;;;16.65;5.20;;;;;;;14.48;82.44;102401.97;5020744;28;20150;-65
2022/10/12 11:04:59;;;;;;;16.73;5.63;;;;;;;14.58;82.80;102392.88;5042002;28;20456;-67
2022/10/12 11:07:53;;;;;;;14.73;5.03;;;;;;;14.72;81.15;102396.94;5027360;28;20650;-66
2022/10/12 11:10:25;;;;;;;15.35;4.82;;;;;;;14.78;80.28;102396.81;5025095;28;20025;-65
2022/10/12 11:12:59;;;;;;;14.02;5.13;;;;;;;14.99;81.57;102387.38;5027135;28;20063;-66
2022/10/12 11:15:33;;;;;;;14.60;5.85;;;;;;;15.18;79.45;102396.59;5020196;28;20034;-65
2022/10/12 11:18:33;;;;;;;12.05;5.47;;;;;;;15.02;81.27;102394.41;5040414;28;20023;-64
2022/10/12 11:21:20;;;;;;;13.07;5.57;;;;;;;15.56;80.20;102386.63;5025707;28;20075;-66